Terminal Aerodrome Forecast
Issued by NWS

Home | Current Version | Previous Version | Text Only | Print | Product List | Glossary On
Versions: 1 2 3 4 5 6 7 8 9 10 11 12 13 14 15 16 17 18 19 20 21
780
FTUS43 KMQT 281730
TAFCMX
TAF
KCMX 281730Z 2818/2918 04011G20KT P6SM OVC015
     FM282000 04012G21KT P6SM BKN025
     FM282200 04010KT P6SM BKN040
     FM290200 03007KT P6SM SCT080=

USA.gov is the U.S. government's official web portal to all federal, state and local government web resources and services.